sensor_id;sensor_type;location;lat;lon;timestamp;temperature;humidity
5796;DHT22;2924;51.458;7.046;2023-03-01T00:01:48;-2.80;99.90
5796;DHT22;2924;51.458;7.046;2023-03-01T00:04:13;-3.00;99.90
5796;DHT22;2924;51.458;7.046;2023-03-01T00:06:39;-3.00;99.90
5796;DHT22;2924;51.458;7.046;2023-03-01T00:09:07;-3.10;99.90
5796;DHT22;2924;51.458;7.046;2023-03-01T00:11:33;-3.20;99.90
5796;DHT22;2924;51.458;7.046;2023-03-01T00:14:00;-3.20;99.90
5796;DHT22;2924;51.458;7.046;2023-03-01T00:16:29;-3.10;99.90
5796;DHT22;2924;51.458;7.046;2023-03-01T00:18:56;-2.70;99.90
5796;DHT22;2924;51.458;7.046;2023-03-01T00:21:23;-2.50;99.90
5796;DHT22;2924;51.458;7.046;2023-03-01T00:23:49;-2.50;99.90
5796;DHT22;2924;51.458;7.046;2023-03-01T00:26:16;-2.50;99.90
5796;DHT22;2924;51.458;7.046;2023-03-01T00:28:43;-2.50;99.90
5796;DHT22;2924;51.458;7.046;2023-03-01T00:31:11;-2.60;99.90
5796;DHT22;2924;51.458;7.046;2023-03-01T00:33:37;-2.70;99.90
5796;DHT22;2924;51.458;7.046;2023-03-01T00:36:03;-2.90;99.90
5796;DHT22;2924;51.458;7.046;2023-03-01T00:38:29;-2.90;99.90
5796;DHT22;2924;51.458;7.046;2023-03-01T00:40:55;-2.80;99.90
5796;DHT22;2924;51.458;7.046;2023-03-01T00:43:21;-2.90;99.90
5796;DHT22;2924;51.458;7.046;2023-03-01T00:45:46;-3.00;99.90
5796;DHT22;2924;51.458;7.046;2023-03-01T00:48:12;-2.80;99.90
5796;DHT22;2924;51.458;7.046;2023-03-01T00:50:38;-2.90;99.90
5796;DHT22;2924;51.458;7.046;2023-03-01T00:53:04;-3.00;99.90
5796;DHT22;2924;51.458;7.046;2023-03-01T00:55:30;-3.20;99.90
5796;DHT22;2924;51.458;7.046;2023-03-01T00:57:56;-3.30;99.90
5796;DHT22;2924;51.458;7.046;2023-03-01T01:00:21;-3.20;99.90
5796;DHT22;2924;51.458;7.046;2023-03-01T01:02:48;-3.30;99.90
5796;DHT22;2924;51.458;7.046;2023-03-01T01:05:14;-3.50;99.90
5796;DHT22;2924;51.458;7.046;2023-03-01T01:07:39;-3.60;99.90
5796;DHT22;2924;51.458;7.046;2023-03-01T01:10:05;-3.70;99.90
5796;DHT22;2924;51.458;7.046;2023-03-01T01:12:32;-3.70;99.90
5796;DHT22;2924;51.458;7.046;2023-03-01T01:14:58;-3.80;99.90
5796;DHT22;2924;51.458;7.046;2023-03-01T01:17:24;-3.60;99.90
5796;DHT22;2924;51.458;7.046;2023-03-01T01:19:49;-3.50;99.90
5796;DHT22;2924;51.458;7.046;2023-03-01T01:22:15;-3.50;99.90
5796;DHT22;2924;51.458;7.046;2023-03-01T01:24:41;-3.40;99.90
5796;DHT22;2924;51.458;7.046;2023-03-01T01:27:06;-3.30;99.90
5796;DHT22;2924;51.458;7.046;2023-03-01T01:29:32;-3.30;99.90
5796;DHT22;2924;51.458;7.046;2023-03-01T01:31:58;-3.40;99.90
5796;DHT22;2924;51.458;7.046;2023-03-01T01:34:24;-3.40;99.90
5796;DHT22;2924;51.458;7.046;2023-03-01T01:36:52;-3.40;99.90
5796;DHT22;2924;51.458;7.046;2023-03-01T01:39:21;-3.50;99.90
5796;DHT22;2924;51.458;7.046;2023-03-01T01:41:48;-3.60;99.90
5796;DHT22;2924;51.458;7.046;2023-03-01T01:47:18;-3.70;99.90
5796;DHT22;2924;51.458;7.046;2023-03-01T01:49:54;-3.90;99.90
5796;DHT22;2924;51.458;7.046;2023-03-01T01:52:31;-4.00;99.90
5796;DHT22;2924;51.458;7.046;2023-03-01T01:57:54;-3.60;99.90
5796;DHT22;2924;51.458;7.046;2023-03-01T02:00:25;-3.50;99.90
5796;DHT22;2924;51.458;7.046;2023-03-01T02:02:56;-3.30;99.90
5796;DHT22;2924;51.458;7.046;2023-03-01T02:05:38;-3.20;99.90
5796;DHT22;2924;51.458;7.046;2023-03-01T02:08:06;-3.20;99.90
5796;DHT22;2924;51.458;7.046;2023-03-01T02:10:34;-3.10;99.90
5796;DHT22;2924;51.458;7.046;2023-03-01T02:13:01;-3.10;99.90
5796;DHT22;2924;51.458;7.046;2023-03-01T02:15:32;-3.20;99.90
5796;DHT22;2924;51.458;7.046;2023-03-01T02:17:58;-3.40;99.90
5796;DHT22;2924;51.458;7.046;2023-03-01T02:20:33;-3.60;99.90
5796;DHT22;2924;51.458;7.046;2023-03-01T02:23:00;-3.60;99.90
5796;DHT22;2924;51.458;7.046;2023-03-01T02:25:31;-3.60;99.90
5796;DHT22;2924;51.458;7.046;2023-03-01T02:30:41;-3.70;99.90
5796;DHT22;2924;51.458;7.046;2023-03-01T02:33:28;-3.80;99.90
5796;DHT22;2924;51.458;7.046;2023-03-01T02:36:03;-3.80;99.90
5796;DHT22;2924;51.458;7.046;2023-03-01T02:38:31;-3.50;99.90
5796;DHT22;2924;51.458;7.046;2023-03-01T02:40:57;-3.60;99.90
5796;DHT22;2924;51.458;7.046;2023-03-01T02:43:29;-3.60;99.90
5796;DHT22;2924;51.458;7.046;2023-03-01T02:46:02;-3.70;99.90
5796;DHT22;2924;51.458;7.046;2023-03-01T02:48:43;-3.70;99.90
5796;DHT22;2924;51.458;7.046;2023-03-01T02:56:38;-3.90;99.90
5796;DHT22;2924;51.458;7.046;2023-03-01T02:59:04;-4.00;99.90
5796;DHT22;2924;51.458;7.046;2023-03-01T03:01:30;-4.00;99.90
5796;DHT22;2924;51.458;7.046;2023-03-01T03:04:07;-4.00;99.90
5796;DHT22;2924;51.458;7.046;2023-03-01T03:06:33;-4.10;99.90
5796;DHT22;2924;51.458;7.046;2023-03-01T03:08:59;-4.10;99.90
5796;DHT22;2924;51.458;7.046;2023-03-01T03:11:25;-4.20;99.90
5796;DHT22;2924;51.458;7.046;2023-03-01T03:13:51;-4.30;99.90
5796;DHT22;2924;51.458;7.046;2023-03-01T03:16:18;-4.40;99.90
5796;DHT22;2924;51.458;7.046;2023-03-01T03:18:44;-4.40;99.90
5796;DHT22;2924;51.458;7.046;2023-03-01T03:21:11;-4.60;99.90
5796;DHT22;2924;51.458;7.046;2023-03-01T03:23:37;-4.50;99.90
5796;DHT22;2924;51.458;7.046;2023-03-01T03:26:04;-4.50;99.90
5796;DHT22;2924;51.458;7.046;2023-03-01T03:28:32;-4.40;99.90
5796;DHT22;2924;51.458;7.046;2023-03-01T03:30:57;-4.30;99.90
5796;DHT22;2924;51.458;7.046;2023-03-01T03:33:24;-4.30;99.90
5796;DHT22;2924;51.458;7.046;2023-03-01T03:35:50;-4.30;99.90
5796;DHT22;2924;51.458;7.046;2023-03-01T03:38:18;-4.40;99.90
5796;DHT22;2924;51.458;7.046;2023-03-01T03:40:59;-4.40;99.90
5796;DHT22;2924;51.458;7.046;2023-03-01T03:43:28;-4.50;99.90
5796;DHT22;2924;51.458;7.046;2023-03-01T03:45:55;-4.30;99.90
5796;DHT22;2924;51.458;7.046;2023-03-01T03:48:22;-4.20;99.90
5796;DHT22;2924;51.458;7.046;2023-03-01T03:50:55;-4.30;99.90
5796;DHT22;2924;51.458;7.046;2023-03-01T03:53:24;-4.20;99.90
5796;DHT22;2924;51.458;7.046;2023-03-01T03:55:50;-4.20;99.90
5796;DHT22;2924;51.458;7.046;2023-03-01T03:58:17;-4.10;99.90
5796;DHT22;2924;51.458;7.046;2023-03-01T04:00:45;-4.20;99.90
5796;DHT22;2924;51.458;7.046;2023-03-01T04:03:12;-4.20;99.90
5796;DHT22;2924;51.458;7.046;2023-03-01T04:05:40;-4.20;99.90
5796;DHT22;2924;51.458;7.046;2023-03-01T04:08:07;-4.30;99.90
5796;DHT22;2924;51.458;7.046;2023-03-01T04:10:44;-4.30;99.90
5796;DHT22;2924;51.458;7.046;2023-03-01T04:13:19;-4.30;99.90
5796;DHT22;2924;51.458;7.046;2023-03-01T04:15:46;-4.40;99.90
5796;DHT22;2924;51.458;7.046;2023-03-01T04:18:14;-4.40;99.90
5796;DHT22;2924;51.458;7.046;2023-03-01T04:20:42;-4.40;99.90
5796;DHT22;2924;51.458;7.046;2023-03-01T04:25:44;-4.50;99.90
5796;DHT22;2924;51.458;7.046;2023-03-01T04:28:10;-4.60;99.90
5796;DHT22;2924;51.458;7.046;2023-03-01T04:30:37;-4.60;99.90
5796;DHT22;2924;51.458;7.046;2023-03-01T04:33:08;-4.30;99.90
5796;DHT22;2924;51.458;7.046;2023-03-01T04:35:35;-4.10;99.90
5796;DHT22;2924;51.458;7.046;2023-03-01T04:38:02;-4.10;99.90
5796;DHT22;2924;51.458;7.046;2023-03-01T04:40:28;-4.20;99.90
5796;DHT22;2924;51.458;7.046;2023-03-01T04:42:54;-4.10;99.90
5796;DHT22;2924;51.458;7.046;2023-03-01T04:45:19;-4.10;99.90
5796;DHT22;2924;51.458;7.046;2023-03-01T04:47:46;-4.20;99.90
5796;DHT22;2924;51.458;7.046;2023-03-01T04:50:15;-4.20;99.90
5796;DHT22;2924;51.458;7.046;2023-03-01T04:52:42;-4.20;99.90
5796;DHT22;2924;51.458;7.046;2023-03-01T04:55:08;-4.20;99.90
5796;DHT22;2924;51.458;7.046;2023-03-01T04:57:34;-4.10;99.90
5796;DHT22;2924;51.458;7.046;2023-03-01T05:00:00;-4.10;99.90
5796;DHT22;2924;51.458;7.046;2023-03-01T05:02:26;-4.20;99.90
5796;DHT22;2924;51.458;7.046;2023-03-01T05:04:52;-4.30;99.90
5796;DHT22;2924;51.458;7.046;2023-03-01T05:07:17;-4.40;99.90
5796;DHT22;2924;51.458;7.046;2023-03-01T05:09:48;-4.30;99.90
5796;DHT22;2924;51.458;7.046;2023-03-01T05:12:14;-4.30;99.90
5796;DHT22;2924;51.458;7.046;2023-03-01T05:14:40;-4.40;99.90
5796;DHT22;2924;51.458;7.046;2023-03-01T05:17:07;-4.30;99.90
5796;DHT22;2924;51.458;7.046;2023-03-01T05:19:33;-4.10;99.90
5796;DHT22;2924;51.458;7.046;2023-03-01T05:21:59;-4.20;99.90
5796;DHT22;2924;51.458;7.046;2023-03-01T05:24:31;-4.20;99.90
5796;DHT22;2924;51.458;7.046;2023-03-01T05:26:57;-4.30;99.90
5796;DHT22;2924;51.458;7.046;2023-03-01T05:29:24;-4.30;99.90
5796;DHT22;2924;51.458;7.046;2023-03-01T05:31:54;-4.30;99.90
5796;DHT22;2924;51.458;7.046;2023-03-01T05:34:24;-4.10;99.90
5796;DHT22;2924;51.458;7.046;2023-03-01T05:36:51;-4.20;99.90
5796;DHT22;2924;51.458;7.046;2023-03-01T05:39:22;-4.10;99.90
5796;DHT22;2924;51.458;7.046;2023-03-01T05:41:52;-4.20;99.90
5796;DHT22;2924;51.458;7.046;2023-03-01T05:44:18;-4.30;99.90
5796;DHT22;2924;51.458;7.046;2023-03-01T05:46:43;-4.30;99.90
5796;DHT22;2924;51.458;7.046;2023-03-01T05:49:10;-4.30;99.90
5796;DHT22;2924;51.458;7.046;2023-03-01T05:51:36;-4.20;99.90
5796;DHT22;2924;51.458;7.046;2023-03-01T05:54:02;-4.30;99.90
5796;DHT22;2924;51.458;7.046;2023-03-01T05:56:27;-4.30;99.90
5796;DHT22;2924;51.458;7.046;2023-03-01T05:58:54;-4.30;99.90
5796;DHT22;2924;51.458;7.046;2023-03-01T06:01:20;-4.40;99.90
5796;DHT22;2924;51.458;7.046;2023-03-01T06:03:45;-4.50;99.90
5796;DHT22;2924;51.458;7.046;2023-03-01T06:06:11;-4.50;99.90
5796;DHT22;2924;51.458;7.046;2023-03-01T06:08:36;-4.50;99.90
5796;DHT22;2924;51.458;7.046;2023-03-01T06:11:02;-4.50;99.90
5796;DHT22;2924;51.458;7.046;2023-03-01T06:13:28;-4.50;99.90
5796;DHT22;2924;51.458;7.046;2023-03-01T06:15:54;-4.40;99.90
5796;DHT22;2924;51.458;7.046;2023-03-01T06:18:19;-4.40;99.90
5796;DHT22;2924;51.458;7.046;2023-03-01T06:20:45;-4.20;99.90
5796;DHT22;2924;51.458;7.046;2023-03-01T06:23:17;-4.20;99.90
5796;DHT22;2924;51.458;7.046;2023-03-01T06:25:43;-4.20;99.90
5796;DHT22;2924;51.458;7.046;2023-03-01T06:28:08;-4.30;99.90
5796;DHT22;2924;51.458;7.046;2023-03-01T06:30:34;-4.10;99.90
5796;DHT22;2924;51.458;7.046;2023-03-01T06:33:00;-4.10;99.90
5796;DHT22;2924;51.458;7.046;2023-03-01T06:35:26;-4.10;99.90
5796;DHT22;2924;51.458;7.046;2023-03-01T06:37:55;-3.90;99.90
5796;DHT22;2924;51.458;7.046;2023-03-01T06:40:21;-3.60;99.90
5796;DHT22;2924;51.458;7.046;2023-03-01T06:42:50;-3.30;99.90
5796;DHT22;2924;51.458;7.046;2023-03-01T06:45:18;-3.10;99.90
5796;DHT22;2924;51.458;7.046;2023-03-01T06:47:44;-2.90;99.90
5796;DHT22;2924;51.458;7.046;2023-03-01T06:50:10;-2.70;99.90
5796;DHT22;2924;51.458;7.046;2023-03-01T06:52:36;-2.50;99.90
5796;DHT22;2924;51.458;7.046;2023-03-01T06:55:03;-2.40;99.90
5796;DHT22;2924;51.458;7.046;2023-03-01T06:57:29;-2.20;99.90
5796;DHT22;2924;51.458;7.046;2023-03-01T06:59:54;-2.10;99.90
5796;DHT22;2924;51.458;7.046;2023-03-01T07:02:20;-1.90;99.90
5796;DHT22;2924;51.458;7.046;2023-03-01T07:04:46;-1.80;99.90
5796;DHT22;2924;51.458;7.046;2023-03-01T07:07:12;-1.60;99.90
5796;DHT22;2924;51.458;7.046;2023-03-01T07:09:37;-1.30;99.90
5796;DHT22;2924;51.458;7.046;2023-03-01T07:12:03;-1.20;99.90
5796;DHT22;2924;51.458;7.046;2023-03-01T07:14:29;-1.10;99.90
5796;DHT22;2924;51.458;7.046;2023-03-01T07:16:55;-1.00;99.90
5796;DHT22;2924;51.458;7.046;2023-03-01T07:19:21;-1.10;99.90
5796;DHT22;2924;51.458;7.046;2023-03-01T07:21:47;-0.90;99.90
5796;DHT22;2924;51.458;7.046;2023-03-01T07:24:13;-0.70;99.90
5796;DHT22;2924;51.458;7.046;2023-03-01T07:26:39;-0.50;99.90
5796;DHT22;2924;51.458;7.046;2023-03-01T07:29:06;-0.10;99.90
5796;DHT22;2924;51.458;7.046;2023-03-01T07:31:32;0.40;99.90
5796;DHT22;2924;51.458;7.046;2023-03-01T07:33:57;0.40;99.90
5796;DHT22;2924;51.458;7.046;2023-03-01T07:36:23;0.70;99.90
5796;DHT22;2924;51.458;7.046;2023-03-01T07:38:50;1.20;99.90
5796;DHT22;2924;51.458;7.046;2023-03-01T07:41:16;1.20;99.90
5796;DHT22;2924;51.458;7.046;2023-03-01T07:43:41;1.20;99.90
5796;DHT22;2924;51.458;7.046;2023-03-01T07:46:07;1.00;99.90
5796;DHT22;2924;51.458;7.046;2023-03-01T07:48:33;1.30;99.90
5796;DHT22;2924;51.458;7.046;2023-03-01T07:51:00;2.10;99.90
5796;DHT22;2924;51.458;7.046;2023-03-01T07:53:26;2.30;99.90
5796;DHT22;2924;51.458;7.046;2023-03-01T07:56:12;3.00;99.90
5796;DHT22;2924;51.458;7.046;2023-03-01T07:58:40;3.80;99.90
5796;DHT22;2924;51.458;7.046;2023-03-01T08:01:08;3.60;99.90
5796;DHT22;2924;51.458;7.046;2023-03-01T08:03:35;3.90;99.90
5796;DHT22;2924;51.458;7.046;2023-03-01T08:06:02;3.40;99.90
5796;DHT22;2924;51.458;7.046;2023-03-01T08:08:28;3.20;99.90
5796;DHT22;2924;51.458;7.046;2023-03-01T08:10:56;2.70;99.90
5796;DHT22;2924;51.458;7.046;2023-03-01T08:13:22;2.70;99.90
5796;DHT22;2924;51.458;7.046;2023-03-01T08:15:49;3.00;99.90
5796;DHT22;2924;51.458;7.046;2023-03-01T08:18:16;3.20;99.90
5796;DHT22;2924;51.458;7.046;2023-03-01T08:20:42;3.40;99.90
5796;DHT22;2924;51.458;7.046;2023-03-01T08:23:08;3.10;99.90
5796;DHT22;2924;51.458;7.046;2023-03-01T08:25:33;3.00;99.90
5796;DHT22;2924;51.458;7.046;2023-03-01T08:27:59;3.40;99.90
5796;DHT22;2924;51.458;7.046;2023-03-01T08:30:25;3.60;99.90
5796;DHT22;2924;51.458;7.046;2023-03-01T08:32:51;3.50;99.90
5796;DHT22;2924;51.458;7.046;2023-03-01T08:35:17;3.70;99.90
5796;DHT22;2924;51.458;7.046;2023-03-01T08:37:44;4.00;99.90
5796;DHT22;2924;51.458;7.046;2023-03-01T08:40:10;3.80;99.90
5796;DHT22;2924;51.458;7.046;2023-03-01T08:42:37;3.60;99.90
5796;DHT22;2924;51.458;7.046;2023-03-01T08:45:03;3.30;99.90
5796;DHT22;2924;51.458;7.046;2023-03-01T08:47:29;3.90;99.90
5796;DHT22;2924;51.458;7.046;2023-03-01T08:49:55;3.80;99.90
5796;DHT22;2924;51.458;7.046;2023-03-01T08:52:20;4.40;99.90
5796;DHT22;2924;51.458;7.046;2023-03-01T08:54:49;4.90;99.90
5796;DHT22;2924;51.458;7.046;2023-03-01T08:57:15;5.10;99.90
5796;DHT22;2924;51.458;7.046;2023-03-01T08:59:41;4.70;99.90
5796;DHT22;2924;51.458;7.046;2023-03-01T09:02:12;4.90;99.90
5796;DHT22;2924;51.458;7.046;2023-03-01T09:04:39;5.00;99.90
5796;DHT22;2924;51.458;7.046;2023-03-01T09:07:04;4.00;99.90
5796;DHT22;2924;51.458;7.046;2023-03-01T09:09:30;4.40;99.90
5796;DHT22;2924;51.458;7.046;2023-03-01T09:11:56;4.20;99.90
5796;DHT22;2924;51.458;7.046;2023-03-01T09:14:22;4.70;99.90
5796;DHT22;2924;51.458;7.046;2023-03-01T09:16:48;4.70;99.90
5796;DHT22;2924;51.458;7.046;2023-03-01T09:19:13;4.60;99.90
5796;DHT22;2924;51.458;7.046;2023-03-01T09:21:39;5.00;99.90
5796;DHT22;2924;51.458;7.046;2023-03-01T09:24:06;4.60;99.90
5796;DHT22;2924;51.458;7.046;2023-03-01T09:26:31;5.10;99.90
5796;DHT22;2924;51.458;7.046;2023-03-01T09:28:57;5.90;99.90
5796;DHT22;2924;51.458;7.046;2023-03-01T09:31:24;6.20;99.20
5796;DHT22;2924;51.458;7.046;2023-03-01T09:33:52;5.40;99.90
5796;DHT22;2924;51.458;7.046;2023-03-01T09:36:20;5.70;99.90
5796;DHT22;2924;51.458;7.046;2023-03-01T09:38:47;6.00;99.20
5796;DHT22;2924;51.458;7.046;2023-03-01T09:46:59;4.70;99.90
5796;DHT22;2924;51.458;7.046;2023-03-01T09:49:35;4.70;99.90
5796;DHT22;2924;51.458;7.046;2023-03-01T09:54:58;4.80;99.90
5796;DHT22;2924;51.458;7.046;2023-03-01T09:57:39;4.80;99.90
5796;DHT22;2924;51.458;7.046;2023-03-01T10:00:32;4.80;99.90
5796;DHT22;2924;51.458;7.046;2023-03-01T10:03:08;5.50;99.90
5796;DHT22;2924;51.458;7.046;2023-03-01T10:10:49;5.80;98.40
5796;DHT22;2924;51.458;7.046;2023-03-01T10:13:16;6.00;98.60
5796;DHT22;2924;51.458;7.046;2023-03-01T10:15:48;5.90;98.00
5796;DHT22;2924;51.458;7.046;2023-03-01T10:18:24;5.80;97.60
5796;DHT22;2924;51.458;7.046;2023-03-01T10:37:19;4.70;99.10
5796;DHT22;2924;51.458;7.046;2023-03-01T10:40:08;4.80;99.10
5796;DHT22;2924;51.458;7.046;2023-03-01T10:42:39;5.00;98.80
5796;DHT22;2924;51.458;7.046;2023-03-01T10:56:51;5.00;98.50
5796;DHT22;2924;51.458;7.046;2023-03-01T10:59:33;5.30;98.10
5796;DHT22;2924;51.458;7.046;2023-03-01T11:07:53;5.50;98.00
5796;DHT22;2924;51.458;7.046;2023-03-01T11:10:26;5.70;97.50
5796;DHT22;2924;51.458;7.046;2023-03-01T11:18:30;5.40;98.00
5796;DHT22;2924;51.458;7.046;2023-03-01T11:20:58;6.20;97.20
5796;DHT22;2924;51.458;7.046;2023-03-01T11:23:25;6.10;96.60
5796;DHT22;2924;51.458;7.046;2023-03-01T11:25:59;5.70;97.30
5796;DHT22;2924;51.458;7.046;2023-03-01T11:28:28;6.20;96.60
5796;DHT22;2924;51.458;7.046;2023-03-01T11:31:01;6.70;95.60
5796;DHT22;2924;51.458;7.046;2023-03-01T11:33:42;6.10;95.50
5796;DHT22;2924;51.458;7.046;2023-03-01T11:41:43;6.20;95.90
5796;DHT22;2924;51.458;7.046;2023-03-01T11:44:25;6.50;95.40
5796;DHT22;2924;51.458;7.046;2023-03-01T11:50:20;6.90;94.60
5796;DHT22;2924;51.458;7.046;2023-03-01T11:58:36;6.80;96.00
5796;DHT22;2924;51.458;7.046;2023-03-01T12:04:26;8.10;93.20
5796;DHT22;2924;51.458;7.046;2023-03-01T12:06:59;7.90;93.20
5796;DHT22;2924;51.458;7.046;2023-03-01T12:22:53;7.40;93.30
5796;DHT22;2924;51.458;7.046;2023-03-01T12:25:38;7.30;93.90
5796;DHT22;2924;51.458;7.046;2023-03-01T12:28:27;7.70;94.00
5796;DHT22;2924;51.458;7.046;2023-03-01T12:31:33;7.80;94.10
5796;DHT22;2924;51.458;7.046;2023-03-01T12:50:18;7.30;93.20
5796;DHT22;2924;51.458;7.046;2023-03-01T12:52:49;7.70;93.60
5796;DHT22;2924;51.458;7.046;2023-03-01T12:55:37;7.90;93.00
5796;DHT22;2924;51.458;7.046;2023-03-01T13:15:28;6.90;93.20
5796;DHT22;2924;51.458;7.046;2023-03-01T13:17:59;7.30;93.30
5796;DHT22;2924;51.458;7.046;2023-03-01T13:20:32;6.90;93.40
5796;DHT22;2924;51.458;7.046;2023-03-01T13:23:06;6.90;93.90
5796;DHT22;2924;51.458;7.046;2023-03-01T13:25:32;7.10;94.00
5796;DHT22;2924;51.458;7.046;2023-03-01T13:31:03;6.80;94.10
5796;DHT22;2924;51.458;7.046;2023-03-01T13:35:57;7.60;93.40
5796;DHT22;2924;51.458;7.046;2023-03-01T13:38:48;7.10;93.60
5796;DHT22;2924;51.458;7.046;2023-03-01T13:44:32;6.40;95.20
5796;DHT22;2924;51.458;7.046;2023-03-01T13:47:15;6.70;94.60
5796;DHT22;2924;51.458;7.046;2023-03-01T13:49:49;6.60;94.90
5796;DHT22;2924;51.458;7.046;2023-03-01T13:52:35;7.10;94.20
5796;DHT22;2924;51.458;7.046;2023-03-01T13:55:10;7.20;93.60
5796;DHT22;2924;51.458;7.046;2023-03-01T13:57:40;6.40;94.40
5796;DHT22;2924;51.458;7.046;2023-03-01T14:00:24;6.50;95.00
5796;DHT22;2924;51.458;7.046;2023-03-01T14:05:32;6.70;94.10
5796;DHT22;2924;51.458;7.046;2023-03-01T14:07:58;6.70;94.20
5796;DHT22;2924;51.458;7.046;2023-03-01T14:10:28;7.10;94.70
5796;DHT22;2924;51.458;7.046;2023-03-01T14:18:52;7.90;93.60
5796;DHT22;2924;51.458;7.046;2023-03-01T14:21:23;7.90;93.70
5796;DHT22;2924;51.458;7.046;2023-03-01T14:23:50;8.20;93.40
5796;DHT22;2924;51.458;7.046;2023-03-01T14:26:21;8.10;93.40
5796;DHT22;2924;51.458;7.046;2023-03-01T14:28:48;8.10;93.30
5796;DHT22;2924;51.458;7.046;2023-03-01T14:31:36;7.80;93.60
5796;DHT22;2924;51.458;7.046;2023-03-01T14:34:03;7.50;94.10
5796;DHT22;2924;51.458;7.046;2023-03-01T14:36:34;8.00;93.10
5796;DHT22;2924;51.458;7.046;2023-03-01T14:39:00;7.80;93.10
5796;DHT22;2924;51.458;7.046;2023-03-01T14:41:33;7.70;93.00
5796;DHT22;2924;51.458;7.046;2023-03-01T14:44:03;7.30;93.50
5796;DHT22;2924;51.458;7.046;2023-03-01T14:46:31;7.00;93.80
5796;DHT22;2924;51.458;7.046;2023-03-01T14:51:43;6.70;94.70
5796;DHT22;2924;51.458;7.046;2023-03-01T14:54:24;6.90;94.50
5796;DHT22;2924;51.458;7.046;2023-03-01T14:56:52;7.20;94.50
5796;DHT22;2924;51.458;7.046;2023-03-01T14:59:22;7.10;94.20
5796;DHT22;2924;51.458;7.046;2023-03-01T15:01:53;6.70;94.40
5796;DHT22;2924;51.458;7.046;2023-03-01T15:04:22;6.70;94.40
5796;DHT22;2924;51.458;7.046;2023-03-01T15:06:54;6.40;94.70
5796;DHT22;2924;51.458;7.046;2023-03-01T15:09:21;6.40;94.90
5796;DHT22;2924;51.458;7.046;2023-03-01T15:11:47;6.40;95.10
5796;DHT22;2924;51.458;7.046;2023-03-01T15:14:39;6.50;94.90
5796;DHT22;2924;51.458;7.046;2023-03-01T15:17:53;6.30;94.90
5796;DHT22;2924;51.458;7.046;2023-03-01T15:20:19;6.40;95.30
5796;DHT22;2924;51.458;7.046;2023-03-01T15:22:47;6.50;95.50
5796;DHT22;2924;51.458;7.046;2023-03-01T15:25:23;6.50;95.60
5796;DHT22;2924;51.458;7.046;2023-03-01T15:27:51;6.60;95.60
5796;DHT22;2924;51.458;7.046;2023-03-01T15:30:20;6.30;95.70
5796;DHT22;2924;51.458;7.046;2023-03-01T15:32:47;6.10;96.00
5796;DHT22;2924;51.458;7.046;2023-03-01T15:35:39;6.20;96.50
5796;DHT22;2924;51.458;7.046;2023-03-01T15:40:55;6.50;96.10
5796;DHT22;2924;51.458;7.046;2023-03-01T15:43:39;6.50;95.80
5796;DHT22;2924;51.458;7.046;2023-03-01T15:46:05;6.40;95.70
5796;DHT22;2924;51.458;7.046;2023-03-01T15:48:31;6.20;96.10
5796;DHT22;2924;51.458;7.046;2023-03-01T15:50:58;6.30;96.00
5796;DHT22;2924;51.458;7.046;2023-03-01T15:53:24;6.40;95.40
5796;DHT22;2924;51.458;7.046;2023-03-01T15:55:52;6.50;95.60
5796;DHT22;2924;51.458;7.046;2023-03-01T15:58:23;6.40;95.10
5796;DHT22;2924;51.458;7.046;2023-03-01T16:00:49;6.10;95.60
5796;DHT22;2924;51.458;7.046;2023-03-01T16:03:21;5.90;96.20
5796;DHT22;2924;51.458;7.046;2023-03-01T16:05:48;5.80;96.50
5796;DHT22;2924;51.458;7.046;2023-03-01T16:08:16;6.00;96.70
5796;DHT22;2924;51.458;7.046;2023-03-01T16:10:41;6.10;96.60
5796;DHT22;2924;51.458;7.046;2023-03-01T16:13:13;6.00;96.30
5796;DHT22;2924;51.458;7.046;2023-03-01T16:15:39;6.20;96.40
5796;DHT22;2924;51.458;7.046;2023-03-01T16:18:05;5.90;96.10
5796;DHT22;2924;51.458;7.046;2023-03-01T16:20:32;6.00;96.10
5796;DHT22;2924;51.458;7.046;2023-03-01T16:22:59;6.20;96.20
5796;DHT22;2924;51.458;7.046;2023-03-01T16:25:25;6.00;95.90
5796;DHT22;2924;51.458;7.046;2023-03-01T16:27:52;6.00;96.10
5796;DHT22;2924;51.458;7.046;2023-03-01T16:30:20;5.70;96.20
5796;DHT22;2924;51.458;7.046;2023-03-01T16:32:47;5.60;96.40
5796;DHT22;2924;51.458;7.046;2023-03-01T16:35:15;5.40;96.80
5796;DHT22;2924;51.458;7.046;2023-03-01T16:37:41;5.20;96.70
5796;DHT22;2924;51.458;7.046;2023-03-01T16:40:17;5.00;96.90
5796;DHT22;2924;51.458;7.046;2023-03-01T16:42:43;4.90;97.10
5796;DHT22;2924;51.458;7.046;2023-03-01T16:45:09;5.00;96.60
5796;DHT22;2924;51.458;7.046;2023-03-01T16:47:35;4.90;96.70
5796;DHT22;2924;51.458;7.046;2023-03-01T16:50:01;4.90;96.10
5796;DHT22;2924;51.458;7.046;2023-03-01T16:52:27;4.90;95.90
5796;DHT22;2924;51.458;7.046;2023-03-01T16:54:53;4.80;96.10
5796;DHT22;2924;51.458;7.046;2023-03-01T16:57:18;4.70;96.20
5796;DHT22;2924;51.458;7.046;2023-03-01T16:59:44;4.60;96.20
5796;DHT22;2924;51.458;7.046;2023-03-01T17:02:13;4.50;96.50
5796;DHT22;2924;51.458;7.046;2023-03-01T17:04:42;4.50;96.70
5796;DHT22;2924;51.458;7.046;2023-03-01T17:07:07;4.40;96.90
5796;DHT22;2924;51.458;7.046;2023-03-01T17:09:36;4.30;97.10
5796;DHT22;2924;51.458;7.046;2023-03-01T17:12:03;4.20;97.70
5796;DHT22;2924;51.458;7.046;2023-03-01T17:14:29;4.20;98.60
5796;DHT22;2924;51.458;7.046;2023-03-01T17:16:55;4.10;99.30
5796;DHT22;2924;51.458;7.046;2023-03-01T17:19:20;3.90;99.90
5796;DHT22;2924;51.458;7.046;2023-03-01T17:21:46;3.70;99.90
5796;DHT22;2924;51.458;7.046;2023-03-01T17:24:12;3.60;99.90
5796;DHT22;2924;51.458;7.046;2023-03-01T17:26:38;3.70;99.90
5796;DHT22;2924;51.458;7.046;2023-03-01T17:29:05;3.50;99.90
5796;DHT22;2924;51.458;7.046;2023-03-01T17:31:32;3.40;99.90
5796;DHT22;2924;51.458;7.046;2023-03-01T17:33:58;3.50;99.90
5796;DHT22;2924;51.458;7.046;2023-03-01T17:36:24;3.40;99.90
5796;DHT22;2924;51.458;7.046;2023-03-01T17:38:51;3.50;99.90
5796;DHT22;2924;51.458;7.046;2023-03-01T17:41:17;3.50;99.90
5796;DHT22;2924;51.458;7.046;2023-03-01T17:43:46;3.50;99.90
5796;DHT22;2924;51.458;7.046;2023-03-01T17:46:12;3.50;99.90
5796;DHT22;2924;51.458;7.046;2023-03-01T17:48:38;3.40;99.90
5796;DHT22;2924;51.458;7.046;2023-03-01T17:51:06;3.40;99.90
5796;DHT22;2924;51.458;7.046;2023-03-01T17:53:32;3.20;99.90
5796;DHT22;2924;51.458;7.046;2023-03-01T17:56:00;2.90;99.90
5796;DHT22;2924;51.458;7.046;2023-03-01T17:58:26;2.70;99.90
5796;DHT22;2924;51.458;7.046;2023-03-01T18:00:52;2.70;99.90
5796;DHT22;2924;51.458;7.046;2023-03-01T18:03:17;2.80;99.90
5796;DHT22;2924;51.458;7.046;2023-03-01T18:05:43;2.80;99.90
5796;DHT22;2924;51.458;7.046;2023-03-01T18:08:08;2.90;99.90
5796;DHT22;2924;51.458;7.046;2023-03-01T18:10:34;3.00;99.90
5796;DHT22;2924;51.458;7.046;2023-03-01T18:13:03;2.90;99.90
5796;DHT22;2924;51.458;7.046;2023-03-01T18:15:29;2.90;99.90
5796;DHT22;2924;51.458;7.046;2023-03-01T18:17:55;2.90;99.90
5796;DHT22;2924;51.458;7.046;2023-03-01T18:20:21;2.90;99.90
5796;DHT22;2924;51.458;7.046;2023-03-01T18:22:46;2.90;99.90
5796;DHT22;2924;51.458;7.046;2023-03-01T18:25:13;2.80;99.90
5796;DHT22;2924;51.458;7.046;2023-03-01T18:27:38;2.80;99.90
5796;DHT22;2924;51.458;7.046;2023-03-01T18:30:06;2.80;99.90
5796;DHT22;2924;51.458;7.046;2023-03-01T18:32:32;2.80;99.90
5796;DHT22;2924;51.458;7.046;2023-03-01T18:34:57;2.70;99.90
5796;DHT22;2924;51.458;7.046;2023-03-01T18:37:23;2.70;99.90
5796;DHT22;2924;51.458;7.046;2023-03-01T18:39:53;2.80;99.90
5796;DHT22;2924;51.458;7.046;2023-03-01T18:42:19;2.70;99.90
5796;DHT22;2924;51.458;7.046;2023-03-01T18:44:47;2.70;99.90
5796;DHT22;2924;51.458;7.046;2023-03-01T18:47:15;2.60;99.90
5796;DHT22;2924;51.458;7.046;2023-03-01T18:49:41;2.50;99.90
5796;DHT22;2924;51.458;7.046;2023-03-01T18:52:06;2.50;99.90
5796;DHT22;2924;51.458;7.046;2023-03-01T18:54:32;2.50;99.90
5796;DHT22;2924;51.458;7.046;2023-03-01T18:56:59;2.40;99.90